sensor_id;sensor_type;location;lat;lon;timestamp;temperature;humidity
64796;DHT22;51229;51.980;6.722;2022-09-16T00:01:34;11.30;99.90
64796;DHT22;51229;51.980;6.722;2022-09-16T00:03:59;11.30;99.90
64796;DHT22;51229;51.980;6.722;2022-09-16T00:06:28;11.30;99.90
64796;DHT22;51229;51.980;6.722;2022-09-16T00:08:58;11.30;99.90
64796;DHT22;51229;51.980;6.722;2022-09-16T00:11:28;11.30;99.90
64796;DHT22;51229;51.980;6.722;2022-09-16T00:13:55;11.30;99.90
64796;DHT22;51229;51.980;6.722;2022-09-16T00:16:23;11.20;99.90
64796;DHT22;51229;51.980;6.722;2022-09-16T00:18:53;11.10;99.90
64796;DHT22;51229;51.980;6.722;2022-09-16T00:21:20;11.30;99.90
64796;DHT22;51229;51.980;6.722;2022-09-16T00:23:46;11.20;99.90
64796;DHT22;51229;51.980;6.722;2022-09-16T00:26:12;11.30;99.90
64796;DHT22;51229;51.980;6.722;2022-09-16T00:28:38;11.20;99.90
64796;DHT22;51229;51.980;6.722;2022-09-16T00:31:04;11.20;99.90
64796;DHT22;51229;51.980;6.722;2022-09-16T00:33:30;11.20;99.90
64796;DHT22;51229;51.980;6.722;2022-09-16T00:36:15;11.20;99.90
64796;DHT22;51229;51.980;6.722;2022-09-16T00:38:41;11.20;99.90
64796;DHT22;51229;51.980;6.722;2022-09-16T00:41:08;11.30;99.90
64796;DHT22;51229;51.980;6.722;2022-09-16T00:43:57;11.10;99.90
64796;DHT22;51229;51.980;6.722;2022-09-16T00:46:44;11.10;99.90
64796;DHT22;51229;51.980;6.722;2022-09-16T00:49:24;11.10;99.90
64796;DHT22;51229;51.980;6.722;2022-09-16T00:51:55;11.00;99.90
64796;DHT22;51229;51.980;6.722;2022-09-16T00:54:24;10.80;99.90
64796;DHT22;51229;51.980;6.722;2022-09-16T00:56:52;10.80;99.90
64796;DHT22;51229;51.980;6.722;2022-09-16T00:59:25;11.00;99.90
64796;DHT22;51229;51.980;6.722;2022-09-16T01:01:53;11.10;99.90
64796;DHT22;51229;51.980;6.722;2022-09-16T01:04:27;11.10;99.90
64796;DHT22;51229;51.980;6.722;2022-09-16T01:06:54;11.00;99.90
64796;DHT22;51229;51.980;6.722;2022-09-16T01:09:21;11.00;99.90
64796;DHT22;51229;51.980;6.722;2022-09-16T01:11:47;11.00;99.90
64796;DHT22;51229;51.980;6.722;2022-09-16T01:14:14;11.00;99.90
64796;DHT22;51229;51.980;6.722;2022-09-16T01:17:06;11.10;99.90
64796;DHT22;51229;51.980;6.722;2022-09-16T01:27:50;11.00;99.90
64796;DHT22;51229;51.980;6.722;2022-09-16T01:30:45;10.80;99.90
64796;DHT22;51229;51.980;6.722;2022-09-16T01:44:35;10.70;99.90
64796;DHT22;51229;51.980;6.722;2022-09-16T01:47:09;10.80;99.90
64796;DHT22;51229;51.980;6.722;2022-09-16T01:50:13;10.70;99.90
64796;DHT22;51229;51.980;6.722;2022-09-16T01:55:30;10.60;99.90
64796;DHT22;51229;51.980;6.722;2022-09-16T01:58:02;10.70;99.90
64796;DHT22;51229;51.980;6.722;2022-09-16T02:00:32;10.80;99.90
64796;DHT22;51229;51.980;6.722;2022-09-16T02:03:02;10.80;99.90
64796;DHT22;51229;51.980;6.722;2022-09-16T02:05:38;10.80;99.90
64796;DHT22;51229;51.980;6.722;2022-09-16T02:08:21;10.70;99.90
64796;DHT22;51229;51.980;6.722;2022-09-16T02:10:54;10.20;99.90
64796;DHT22;51229;51.980;6.722;2022-09-16T02:13:32;10.50;99.90
64796;DHT22;51229;51.980;6.722;2022-09-16T02:16:03;10.70;99.90
64796;DHT22;51229;51.980;6.722;2022-09-16T02:18:34;10.80;99.90
64796;DHT22;51229;51.980;6.722;2022-09-16T02:21:03;10.80;99.90
64796;DHT22;51229;51.980;6.722;2022-09-16T02:23:33;10.80;99.90
64796;DHT22;51229;51.980;6.722;2022-09-16T02:26:02;10.70;99.90
64796;DHT22;51229;51.980;6.722;2022-09-16T02:28:32;10.80;99.90
64796;DHT22;51229;51.980;6.722;2022-09-16T02:31:02;10.80;99.90
64796;DHT22;51229;51.980;6.722;2022-09-16T02:33:33;10.70;99.90
64796;DHT22;51229;51.980;6.722;2022-09-16T02:36:02;10.80;99.90
64796;DHT22;51229;51.980;6.722;2022-09-16T02:38:34;10.80;99.90
64796;DHT22;51229;51.980;6.722;2022-09-16T02:41:01;10.70;99.90
64796;DHT22;51229;51.980;6.722;2022-09-16T02:43:28;10.80;99.90
64796;DHT22;51229;51.980;6.722;2022-09-16T02:49:08;10.70;99.90
64796;DHT22;51229;51.980;6.722;2022-09-16T02:52:04;10.60;99.90
64796;DHT22;51229;51.980;6.722;2022-09-16T02:57:06;10.70;99.90
64796;DHT22;51229;51.980;6.722;2022-09-16T02:59:32;10.70;99.90
64796;DHT22;51229;51.980;6.722;2022-09-16T03:01:58;10.60;99.90
64796;DHT22;51229;51.980;6.722;2022-09-16T03:04:24;10.40;99.90
64796;DHT22;51229;51.980;6.722;2022-09-16T03:06:50;10.40;99.90
64796;DHT22;51229;51.980;6.722;2022-09-16T03:09:16;10.40;99.90
64796;DHT22;51229;51.980;6.722;2022-09-16T03:17:40;10.60;99.90
64796;DHT22;51229;51.980;6.722;2022-09-16T03:20:21;10.50;99.90
64796;DHT22;51229;51.980;6.722;2022-09-16T03:23:17;10.40;99.90
64796;DHT22;51229;51.980;6.722;2022-09-16T03:31:09;10.50;99.90
64796;DHT22;51229;51.980;6.722;2022-09-16T03:36:24;10.40;99.90
64796;DHT22;51229;51.980;6.722;2022-09-16T03:38:52;10.50;99.90
64796;DHT22;51229;51.980;6.722;2022-09-16T03:41:19;10.50;99.90
64796;DHT22;51229;51.980;6.722;2022-09-16T03:43:56;10.30;99.90
64796;DHT22;51229;51.980;6.722;2022-09-16T03:46:23;10.40;99.90
64796;DHT22;51229;51.980;6.722;2022-09-16T03:48:51;10.50;99.90
64796;DHT22;51229;51.980;6.722;2022-09-16T03:51:17;10.40;99.90
64796;DHT22;51229;51.980;6.722;2022-09-16T03:53:43;10.30;99.90
64796;DHT22;51229;51.980;6.722;2022-09-16T03:56:08;10.40;99.90
64796;DHT22;51229;51.980;6.722;2022-09-16T03:58:34;10.50;99.90
64796;DHT22;51229;51.980;6.722;2022-09-16T04:01:00;10.60;99.90
64796;DHT22;51229;51.980;6.722;2022-09-16T04:03:26;10.60;99.90
64796;DHT22;51229;51.980;6.722;2022-09-16T04:05:55;10.60;99.90
64796;DHT22;51229;51.980;6.722;2022-09-16T04:08:21;10.50;99.90
64796;DHT22;51229;51.980;6.722;2022-09-16T04:10:58;10.60;99.90
64796;DHT22;51229;51.980;6.722;2022-09-16T04:13:25;10.60;99.90
64796;DHT22;51229;51.980;6.722;2022-09-16T04:15:51;10.60;99.90
64796;DHT22;51229;51.980;6.722;2022-09-16T04:18:17;10.50;99.90
64796;DHT22;51229;51.980;6.722;2022-09-16T04:20:43;10.50;99.90
64796;DHT22;51229;51.980;6.722;2022-09-16T04:23:09;10.50;99.90
64796;DHT22;51229;51.980;6.722;2022-09-16T04:25:35;10.50;99.90
64796;DHT22;51229;51.980;6.722;2022-09-16T04:28:01;10.50;99.90
64796;DHT22;51229;51.980;6.722;2022-09-16T04:30:26;10.40;99.90
64796;DHT22;51229;51.980;6.722;2022-09-16T04:32:55;10.40;99.90
64796;DHT22;51229;51.980;6.722;2022-09-16T04:35:24;10.40;99.90
64796;DHT22;51229;51.980;6.722;2022-09-16T04:37:50;10.30;99.90
64796;DHT22;51229;51.980;6.722;2022-09-16T04:40:18;10.20;99.90
64796;DHT22;51229;51.980;6.722;2022-09-16T04:42:50;10.10;99.90
64796;DHT22;51229;51.980;6.722;2022-09-16T04:45:16;9.90;99.90
64796;DHT22;51229;51.980;6.722;2022-09-16T04:47:42;10.10;99.90
64796;DHT22;51229;51.980;6.722;2022-09-16T04:50:08;10.20;99.90
64796;DHT22;51229;51.980;6.722;2022-09-16T04:52:35;10.30;99.90
64796;DHT22;51229;51.980;6.722;2022-09-16T04:55:01;10.20;99.90
64796;DHT22;51229;51.980;6.722;2022-09-16T04:57:30;10.20;99.90
64796;DHT22;51229;51.980;6.722;2022-09-16T04:59:57;10.30;99.90
64796;DHT22;51229;51.980;6.722;2022-09-16T05:02:23;9.90;99.90
64796;DHT22;51229;51.980;6.722;2022-09-16T05:04:48;9.90;99.90
64796;DHT22;51229;51.980;6.722;2022-09-16T05:07:14;10.10;99.90
64796;DHT22;51229;51.980;6.722;2022-09-16T05:09:40;10.20;99.90
64796;DHT22;51229;51.980;6.722;2022-09-16T05:12:06;10.20;99.90
64796;DHT22;51229;51.980;6.722;2022-09-16T05:14:31;10.20;99.90
64796;DHT22;51229;51.980;6.722;2022-09-16T05:16:57;10.20;99.90
64796;DHT22;51229;51.980;6.722;2022-09-16T05:19:23;10.10;99.90
64796;DHT22;51229;51.980;6.722;2022-09-16T05:21:49;10.00;99.90
64796;DHT22;51229;51.980;6.722;2022-09-16T05:24:14;10.10;99.90
64796;DHT22;51229;51.980;6.722;2022-09-16T05:26:41;10.30;99.90
64796;DHT22;51229;51.980;6.722;2022-09-16T05:29:10;10.30;99.90
64796;DHT22;51229;51.980;6.722;2022-09-16T05:31:39;10.30;99.90
64796;DHT22;51229;51.980;6.722;2022-09-16T05:34:17;10.40;99.90
64796;DHT22;51229;51.980;6.722;2022-09-16T05:36:43;9.80;99.90
64796;DHT22;51229;51.980;6.722;2022-09-16T05:39:12;9.80;99.90
64796;DHT22;51229;51.980;6.722;2022-09-16T05:41:40;9.90;99.90
64796;DHT22;51229;51.980;6.722;2022-09-16T05:44:05;10.00;99.90
64796;DHT22;51229;51.980;6.722;2022-09-16T05:46:31;10.00;99.90
64796;DHT22;51229;51.980;6.722;2022-09-16T05:48:57;10.00;99.90
64796;DHT22;51229;51.980;6.722;2022-09-16T05:51:23;10.00;99.90
64796;DHT22;51229;51.980;6.722;2022-09-16T05:53:51;10.10;99.90
64796;DHT22;51229;51.980;6.722;2022-09-16T05:56:22;10.10;99.90
64796;DHT22;51229;51.980;6.722;2022-09-16T05:58:51;10.10;99.90
64796;DHT22;51229;51.980;6.722;2022-09-16T06:01:20;10.10;99.90
64796;DHT22;51229;51.980;6.722;2022-09-16T06:03:47;10.10;99.90
64796;DHT22;51229;51.980;6.722;2022-09-16T06:06:33;10.10;99.90
64796;DHT22;51229;51.980;6.722;2022-09-16T06:09:08;10.20;99.90
64796;DHT22;51229;51.980;6.722;2022-09-16T06:11:39;10.30;99.90
64796;DHT22;51229;51.980;6.722;2022-09-16T06:14:06;10.40;99.90
64796;DHT22;51229;51.980;6.722;2022-09-16T06:16:32;10.40;99.90
64796;DHT22;51229;51.980;6.722;2022-09-16T06:19:04;10.40;99.90
64796;DHT22;51229;51.980;6.722;2022-09-16T06:21:30;10.50;99.90
64796;DHT22;51229;51.980;6.722;2022-09-16T06:23:56;10.50;99.90
64796;DHT22;51229;51.980;6.722;2022-09-16T06:26:24;10.60;99.90
64796;DHT22;51229;51.980;6.722;2022-09-16T06:28:51;10.70;99.90
64796;DHT22;51229;51.980;6.722;2022-09-16T06:31:19;10.70;99.90
64796;DHT22;51229;51.980;6.722;2022-09-16T06:33:46;10.70;99.90
64796;DHT22;51229;51.980;6.722;2022-09-16T06:36:17;10.70;99.90
64796;DHT22;51229;51.980;6.722;2022-09-16T06:38:43;10.70;99.90
64796;DHT22;51229;51.980;6.722;2022-09-16T06:41:11;10.50;99.90
64796;DHT22;51229;51.980;6.722;2022-09-16T06:43:37;10.40;99.90
64796;DHT22;51229;51.980;6.722;2022-09-16T06:46:09;10.50;99.90
64796;DHT22;51229;51.980;6.722;2022-09-16T06:48:39;10.50;99.90
64796;DHT22;51229;51.980;6.722;2022-09-16T06:51:08;10.80;99.90
64796;DHT22;51229;51.980;6.722;2022-09-16T06:53:34;11.40;99.90
64796;DHT22;51229;51.980;6.722;2022-09-16T06:56:01;12.00;99.90
64796;DHT22;51229;51.980;6.722;2022-09-16T06:58:30;12.50;99.90
64796;DHT22;51229;51.980;6.722;2022-09-16T07:00:56;12.80;99.90
64796;DHT22;51229;51.980;6.722;2022-09-16T07:03:22;13.00;99.90
64796;DHT22;51229;51.980;6.722;2022-09-16T07:05:58;13.10;99.90
64796;DHT22;51229;51.980;6.722;2022-09-16T07:08:28;12.90;99.90
64796;DHT22;51229;51.980;6.722;2022-09-16T07:10:58;13.20;99.90
64796;DHT22;51229;51.980;6.722;2022-09-16T07:13:25;13.20;99.90
64796;DHT22;51229;51.980;6.722;2022-09-16T07:15:51;13.70;99.90
64796;DHT22;51229;51.980;6.722;2022-09-16T07:18:17;13.60;99.90
64796;DHT22;51229;51.980;6.722;2022-09-16T07:20:43;14.00;99.90
64796;DHT22;51229;51.980;6.722;2022-09-16T07:23:08;14.60;99.90
64796;DHT22;51229;51.980;6.722;2022-09-16T07:25:34;14.00;99.90
64796;DHT22;51229;51.980;6.722;2022-09-16T07:28:00;13.00;99.90
64796;DHT22;51229;51.980;6.722;2022-09-16T07:30:26;12.70;99.90
64796;DHT22;51229;51.980;6.722;2022-09-16T07:32:56;13.20;99.90
64796;DHT22;51229;51.980;6.722;2022-09-16T07:35:22;14.40;99.90
64796;DHT22;51229;51.980;6.722;2022-09-16T07:37:48;14.10;99.90
64796;DHT22;51229;51.980;6.722;2022-09-16T07:40:13;14.00;99.90
64796;DHT22;51229;51.980;6.722;2022-09-16T07:42:39;14.60;99.90
64796;DHT22;51229;51.980;6.722;2022-09-16T07:45:07;15.20;99.90
64796;DHT22;51229;51.980;6.722;2022-09-16T07:47:32;15.50;99.90
64796;DHT22;51229;51.980;6.722;2022-09-16T07:49:58;15.70;99.90
64796;DHT22;51229;51.980;6.722;2022-09-16T07:52:24;16.30;99.90
64796;DHT22;51229;51.980;6.722;2022-09-16T07:54:54;15.70;99.90
64796;DHT22;51229;51.980;6.722;2022-09-16T07:57:21;16.10;99.90
64796;DHT22;51229;51.980;6.722;2022-09-16T07:59:47;15.80;99.90
64796;DHT22;51229;51.980;6.722;2022-09-16T08:02:12;16.70;99.90
64796;DHT22;51229;51.980;6.722;2022-09-16T08:04:38;17.10;99.90
64796;DHT22;51229;51.980;6.722;2022-09-16T08:07:05;17.20;99.90
64796;DHT22;51229;51.980;6.722;2022-09-16T08:09:31;17.50;99.90
64796;DHT22;51229;51.980;6.722;2022-09-16T08:11:58;17.20;99.90
64796;DHT22;51229;51.980;6.722;2022-09-16T08:14:25;16.90;99.90
64796;DHT22;51229;51.980;6.722;2022-09-16T08:16:51;16.90;99.90
64796;DHT22;51229;51.980;6.722;2022-09-16T08:19:17;17.20;99.90
64796;DHT22;51229;51.980;6.722;2022-09-16T08:21:45;17.30;99.90
64796;DHT22;51229;51.980;6.722;2022-09-16T08:24:10;17.60;99.90
64796;DHT22;51229;51.980;6.722;2022-09-16T08:26:36;17.40;99.90
64796;DHT22;51229;51.980;6.722;2022-09-16T08:29:03;17.30;99.90
64796;DHT22;51229;51.980;6.722;2022-09-16T08:31:28;17.50;99.90
64796;DHT22;51229;51.980;6.722;2022-09-16T08:33:54;17.60;99.90
64796;DHT22;51229;51.980;6.722;2022-09-16T08:36:22;17.60;99.90
64796;DHT22;51229;51.980;6.722;2022-09-16T08:38:52;18.10;99.90
64796;DHT22;51229;51.980;6.722;2022-09-16T08:49:34;18.10;99.90
64796;DHT22;51229;51.980;6.722;2022-09-16T08:52:11;18.80;99.90
64796;DHT22;51229;51.980;6.722;2022-09-16T08:54:45;17.30;99.90
64796;DHT22;51229;51.980;6.722;2022-09-16T08:57:21;16.60;99.90
64796;DHT22;51229;51.980;6.722;2022-09-16T08:59:51;16.10;99.90
64796;DHT22;51229;51.980;6.722;2022-09-16T09:05:53;15.70;99.90
64796;DHT22;51229;51.980;6.722;2022-09-16T09:20:18;20.30;99.90
64796;DHT22;51229;51.980;6.722;2022-09-16T09:23:04;21.00;99.90
64796;DHT22;51229;51.980;6.722;2022-09-16T09:30:41;20.90;99.90
64796;DHT22;51229;51.980;6.722;2022-09-16T09:33:29;21.10;99.90
64796;DHT22;51229;51.980;6.722;2022-09-16T09:39:16;21.70;99.00
64796;DHT22;51229;51.980;6.722;2022-09-16T09:41:51;21.30;99.20
64796;DHT22;51229;51.980;6.722;2022-09-16T09:47:31;19.00;99.90
64796;DHT22;51229;51.980;6.722;2022-09-16T09:50:08;20.30;99.90
64796;DHT22;51229;51.980;6.722;2022-09-16T09:53:05;19.80;99.90
64796;DHT22;51229;51.980;6.722;2022-09-16T09:55:31;20.60;99.80
64796;DHT22;51229;51.980;6.722;2022-09-16T10:01:05;18.90;99.90
64796;DHT22;51229;51.980;6.722;2022-09-16T10:03:31;18.90;99.90
64796;DHT22;51229;51.980;6.722;2022-09-16T10:05:57;18.60;99.90
64796;DHT22;51229;51.980;6.722;2022-09-16T10:08:33;18.60;99.90
64796;DHT22;51229;51.980;6.722;2022-09-16T10:11:02;19.50;99.90
64796;DHT22;51229;51.980;6.722;2022-09-16T10:13:30;19.20;99.90
64796;DHT22;51229;51.980;6.722;2022-09-16T10:16:15;20.60;99.90
64796;DHT22;51229;51.980;6.722;2022-09-16T10:18:43;22.00;99.90
64796;DHT22;51229;51.980;6.722;2022-09-16T10:21:14;22.40;98.90
64796;DHT22;51229;51.980;6.722;2022-09-16T10:23:51;22.60;98.40
64796;DHT22;51229;51.980;6.722;2022-09-16T10:29:15;22.70;97.50
64796;DHT22;51229;51.980;6.722;2022-09-16T10:31:42;22.20;96.90
64796;DHT22;51229;51.980;6.722;2022-09-16T10:34:31;22.50;96.50
64796;DHT22;51229;51.980;6.722;2022-09-16T10:39:44;19.60;99.90
64796;DHT22;51229;51.980;6.722;2022-09-16T10:42:26;18.80;99.90
64796;DHT22;51229;51.980;6.722;2022-09-16T10:45:09;18.70;99.30
64796;DHT22;51229;51.980;6.722;2022-09-16T10:47:39;18.80;99.90
64796;DHT22;51229;51.980;6.722;2022-09-16T10:50:06;19.00;99.90
64796;DHT22;51229;51.980;6.722;2022-09-16T10:52:44;19.10;99.20
64796;DHT22;51229;51.980;6.722;2022-09-16T10:55:23;19.00;96.20
64796;DHT22;51229;51.980;6.722;2022-09-16T10:57:52;20.50;94.50
64796;DHT22;51229;51.980;6.722;2022-09-16T11:00:21;22.20;91.10
64796;DHT22;51229;51.980;6.722;2022-09-16T11:19:59;19.00;99.90
64796;DHT22;51229;51.980;6.722;2022-09-16T11:22:45;19.30;99.50
64796;DHT22;51229;51.980;6.722;2022-09-16T11:25:43;19.20;99.90
64796;DHT22;51229;51.980;6.722;2022-09-16T11:31:30;21.40;98.00
64796;DHT22;51229;51.980;6.722;2022-09-16T11:34:16;22.30;95.90
64796;DHT22;51229;51.980;6.722;2022-09-16T11:37:08;22.60;95.20
64796;DHT22;51229;51.980;6.722;2022-09-16T11:42:33;23.40;94.30
64796;DHT22;51229;51.980;6.722;2022-09-16T11:56:15;23.20;91.10
64796;DHT22;51229;51.980;6.722;2022-09-16T11:58:56;24.10;90.10
64796;DHT22;51229;51.980;6.722;2022-09-16T12:01:41;24.10;89.40
64796;DHT22;51229;51.980;6.722;2022-09-16T12:10:04;24.10;83.70
64796;DHT22;51229;51.980;6.722;2022-09-16T12:12:45;22.50;85.40
64796;DHT22;51229;51.980;6.722;2022-09-16T12:15:36;21.20;85.50
64796;DHT22;51229;51.980;6.722;2022-09-16T12:18:15;19.40;87.50
64796;DHT22;51229;51.980;6.722;2022-09-16T12:20:56;18.60;89.50
64796;DHT22;51229;51.980;6.722;2022-09-16T12:23:29;18.70;89.00
64796;DHT22;51229;51.980;6.722;2022-09-16T12:26:20;18.00;90.20
64796;DHT22;51229;51.980;6.722;2022-09-16T12:31:42;20.50;90.50
64796;DHT22;51229;51.980;6.722;2022-09-16T12:34:19;23.70;85.00
64796;DHT22;51229;51.980;6.722;2022-09-16T12:36:54;24.10;81.80
64796;DHT22;51229;51.980;6.722;2022-09-16T12:39:22;24.40;78.90
64796;DHT22;51229;51.980;6.722;2022-09-16T12:45:02;23.90;75.80
64796;DHT22;51229;51.980;6.722;2022-09-16T12:50:50;24.20;76.70
64796;DHT22;51229;51.980;6.722;2022-09-16T12:53:39;24.50;75.50
64796;DHT22;51229;51.980;6.722;2022-09-16T12:56:42;24.50;75.60
64796;DHT22;51229;51.980;6.722;2022-09-16T12:59:32;24.20;76.50
64796;DHT22;51229;51.980;6.722;2022-09-16T13:02:16;23.80;77.70
64796;DHT22;51229;51.980;6.722;2022-09-16T13:04:47;23.90;78.40
64796;DHT22;51229;51.980;6.722;2022-09-16T13:07:22;23.50;79.50
64796;DHT22;51229;51.980;6.722;2022-09-16T13:09:57;24.20;79.10
64796;DHT22;51229;51.980;6.722;2022-09-16T13:12:25;23.60;79.80
64796;DHT22;51229;51.980;6.722;2022-09-16T13:15:00;23.70;80.40
64796;DHT22;51229;51.980;6.722;2022-09-16T13:20:11;23.20;81.90
64796;DHT22;51229;51.980;6.722;2022-09-16T13:26:04;23.70;81.60
64796;DHT22;51229;51.980;6.722;2022-09-16T13:28:41;24.20;80.60
64796;DHT22;51229;51.980;6.722;2022-09-16T13:31:28;23.60;81.10
64796;DHT22;51229;51.980;6.722;2022-09-16T13:38:51;21.80;83.50
64796;DHT22;51229;51.980;6.722;2022-09-16T13:46:49;21.20;85.30
64796;DHT22;51229;51.980;6.722;2022-09-16T13:51:45;20.30;88.50
64796;DHT22;51229;51.980;6.722;2022-09-16T13:54:19;20.20;88.30
64796;DHT22;51229;51.980;6.722;2022-09-16T13:59:40;20.30;89.10
64796;DHT22;51229;51.980;6.722;2022-09-16T14:02:16;20.10;84.20
64796;DHT22;51229;51.980;6.722;2022-09-16T14:15:23;19.40;90.00
64796;DHT22;51229;51.980;6.722;2022-09-16T14:17:54;19.50;90.20
64796;DHT22;51229;51.980;6.722;2022-09-16T14:20:23;19.50;90.10
64796;DHT22;51229;51.980;6.722;2022-09-16T14:23:01;19.40;90.20
64796;DHT22;51229;51.980;6.722;2022-09-16T14:25:32;19.20;90.20
64796;DHT22;51229;51.980;6.722;2022-09-16T14:28:08;19.20;90.30
64796;DHT22;51229;51.980;6.722;2022-09-16T14:30:34;19.00;90.40
64796;DHT22;51229;51.980;6.722;2022-09-16T14:33:00;19.00;90.90
64796;DHT22;51229;51.980;6.722;2022-09-16T14:35:27;18.80;91.10
64796;DHT22;51229;51.980;6.722;2022-09-16T14:38:00;18.70;91.30
64796;DHT22;51229;51.980;6.722;2022-09-16T14:40:28;18.60;91.40
64796;DHT22;51229;51.980;6.722;2022-09-16T14:42:58;18.50;91.60
64796;DHT22;51229;51.980;6.722;2022-09-16T14:45:26;18.50;91.70
64796;DHT22;51229;51.980;6.722;2022-09-16T14:47:54;18.50;91.40
64796;DHT22;51229;51.980;6.722;2022-09-16T14:50:24;18.60;91.80
64796;DHT22;51229;51.980;6.722;2022-09-16T14:52:54;18.30;92.00
64796;DHT22;51229;51.980;6.722;2022-09-16T14:55:23;18.20;91.70
64796;DHT22;51229;51.980;6.722;2022-09-16T14:57:50;18.20;92.20
64796;DHT22;51229;51.980;6.722;2022-09-16T15:00:16;18.30;91.20
64796;DHT22;51229;51.980;6.722;2022-09-16T15:03:08;18.10;92.30
64796;DHT22;51229;51.980;6.722;2022-09-16T15:05:38;18.10;92.30
64796;DHT22;51229;51.980;6.722;2022-09-16T15:08:17;18.00;92.00
64796;DHT22;51229;51.980;6.722;2022-09-16T15:10:48;17.80;92.80
64796;DHT22;51229;51.980;6.722;2022-09-16T15:13:17;18.10;92.40
64796;DHT22;51229;51.980;6.722;2022-09-16T15:15:48;18.10;92.30
64796;DHT22;51229;51.980;6.722;2022-09-16T15:18:35;17.90;92.60
64796;DHT22;51229;51.980;6.722;2022-09-16T15:23:28;17.60;93.00
64796;DHT22;51229;51.980;6.722;2022-09-16T15:26:01;17.50;93.20
64796;DHT22;51229;51.980;6.722;2022-09-16T15:28:28;17.40;93.40
64796;DHT22;51229;51.980;6.722;2022-09-16T15:30:54;17.20;93.30
64796;DHT22;51229;51.980;6.722;2022-09-16T15:35:50;17.20;92.40
64796;DHT22;51229;51.980;6.722;2022-09-16T15:38:22;17.00;93.80
64796;DHT22;51229;51.980;6.722;2022-09-16T15:41:05;16.80;93.60
64796;DHT22;51229;51.980;6.722;2022-09-16T15:43:41;16.80;94.50
64796;DHT22;51229;51.980;6.722;2022-09-16T15:46:18;16.90;94.80
64796;DHT22;51229;51.980;6.722;2022-09-16T15:48:56;16.80;94.40
64796;DHT22;51229;51.980;6.722;2022-09-16T15:51:38;16.70;94.30
64796;DHT22;51229;51.980;6.722;2022-09-16T15:57:20;16.60;94.00
64796;DHT22;51229;51.980;6.722;2022-09-16T15:59:55;16.50;94.70
64796;DHT22;51229;51.980;6.722;2022-09-16T16:02:43;16.50;94.50
64796;DHT22;51229;51.980;6.722;2022-09-16T16:05:13;16.40;94.50
64796;DHT22;51229;51.980;6.722;2022-09-16T16:07:45;16.40;94.30
64796;DHT22;51229;51.980;6.722;2022-09-16T16:10:15;16.40;94.80
64796;DHT22;51229;51.980;6.722;2022-09-16T16:12:44;16.40;94.80
64796;DHT22;51229;51.980;6.722;2022-09-16T16:15:11;16.30;94.80
64796;DHT22;51229;51.980;6.722;2022-09-16T16:17:37;16.30;93.00
64796;DHT22;51229;51.980;6.722;2022-09-16T16:20:04;16.20;94.80
64796;DHT22;51229;51.980;6.722;2022-09-16T16:22:29;16.30;94.80
64796;DHT22;51229;51.980;6.722;2022-09-16T16:24:56;16.30;94.80
64796;DHT22;51229;51.980;6.722;2022-09-16T16:27:21;16.10;93.20
64796;DHT22;51229;51.980;6.722;2022-09-16T16:29:48;16.10;95.00
64796;DHT22;51229;51.980;6.722;2022-09-16T16:32:14;16.00;95.30
64796;DHT22;51229;51.980;6.722;2022-09-16T16:34:45;15.90;95.00
64796;DHT22;51229;51.980;6.722;2022-09-16T16:37:13;15.90;95.40
64796;DHT22;51229;51.980;6.722;2022-09-16T16:39:39;15.90;95.40
64796;DHT22;51229;51.980;6.722;2022-09-16T16:42:05;15.90;95.50
64796;DHT22;51229;51.980;6.722;2022-09-16T16:44:33;15.80;95.80
64796;DHT22;51229;51.980;6.722;2022-09-16T16:46:59;15.60;96.00
64796;DHT22;51229;51.980;6.722;2022-09-16T16:49:26;15.60;96.10
64796;DHT22;51229;51.980;6.722;2022-09-16T16:51:52;15.60;96.00
64796;DHT22;51229;51.980;6.722;2022-09-16T16:54:20;15.50;96.30
64796;DHT22;51229;51.980;6.722;2022-09-16T16:56:46;15.50;96.30
64796;DHT22;51229;51.980;6.722;2022-09-16T16:59:13;15.40;96.40
64796;DHT22;51229;51.980;6.722;2022-09-16T17:01:40;15.40;96.50
64796;DHT22;51229;51.980;6.722;2022-09-16T17:04:07;15.50;96.40
64796;DHT22;51229;51.980;6.722;2022-09-16T17:06:33;15.40;96.40
64796;DHT22;51229;51.980;6.722;2022-09-16T17:09:00;15.40;96.30
64796;DHT22;51229;51.980;6.722;2022-09-16T17:11:26;15.40;96.60
64796;DHT22;51229;51.980;6.722;2022-09-16T17:13:56;15.40;96.50
64796;DHT22;51229;51.980;6.722;2022-09-16T17:16:23;15.40;96.50
64796;DHT22;51229;51.980;6.722;2022-09-16T17:18:50;15.20;96.60
64796;DHT22;51229;51.980;6.722;2022-09-16T17:21:18;15.10;97.00
64796;DHT22;51229;51.980;6.722;2022-09-16T17:23:44;15.00;97.10
64796;DHT22;51229;51.980;6.722;2022-09-16T17:26:11;14.90;97.00
64796;DHT22;51229;51.980;6.722;2022-09-16T17:28:39;14.90;96.70
64796;DHT22;51229;51.980;6.722;2022-09-16T17:31:19;14.80;97.20
64796;DHT22;51229;51.980;6.722;2022-09-16T17:33:45;14.90;97.40
64796;DHT22;51229;51.980;6.722;2022-09-16T17:36:14;14.80;97.50
64796;DHT22;51229;51.980;6.722;2022-09-16T17:38:40;14.80;97.70
64796;DHT22;51229;51.980;6.722;2022-09-16T17:41:11;14.70;97.60
64796;DHT22;51229;51.980;6.722;2022-09-16T17:43:38;14.60;97.70
64796;DHT22;51229;51.980;6.722;2022-09-16T17:46:06;14.60;97.90
64796;DHT22;51229;51.980;6.722;2022-09-16T17:48:33;14.50;98.10
64796;DHT22;51229;51.980;6.722;2022-09-16T17:51:01;14.50;97.90
64796;DHT22;51229;51.980;6.722;2022-09-16T17:53:26;14.50;98.20
64796;DHT22;51229;51.980;6.722;2022-09-16T17:55:59;14.50;98.10
64796;DHT22;51229;51.980;6.722;2022-09-16T17:58:25;14.40;98.20
64796;DHT22;51229;51.980;6.722;2022-09-16T18:00:51;14.40;98.20
64796;DHT22;51229;51.980;6.722;2022-09-16T18:03:17;14.20;98.50
64796;DHT22;51229;51.980;6.722;2022-09-16T18:05:42;14.10;99.00
64796;DHT22;51229;51.980;6.722;2022-09-16T18:08:09;14.00;99.20
64796;DHT22;51229;51.980;6.722;2022-09-16T18:10:35;14.00;99.30
64796;DHT22;51229;51.980;6.722;2022-09-16T18:13:00;14.00;99.40
64796;DHT22;51229;51.980;6.722;2022-09-16T18:15:28;13.90;99.50
64796;DHT22;51229;51.980;6.722;2022-09-16T18:17:53;13.90;99.70
64796;DHT22;51229;51.980;6.722;2022-09-16T18:20:19;13.90;99.90
64796;DHT22;51229;51.980;6.722;2022-09-16T18:22:45;13.80;99.90
64796;DHT22;51229;51.980;6.722;2022-09-16T18:25:13;13.70;99.90
64796;DHT22;51229;51.980;6.722;2022-09-16T18:27:38;13.60;99.90
64796;DHT22;51229;51.980;6.722;2022-09-16T18:30:04;13.70;99.90
64796;DHT22;51229;51.980;6.722;2022-09-16T18:32:30;13.70;99.90
64796;DHT22;51229;51.980;6.722;2022-09-16T18:34:56;13.70;99.90
64796;DHT22;51229;51.980;6.722;2022-09-16T18:37:22;13.60;99.90
64796;DHT22;51229;51.980;6.722;2022-09-16T18:39:48;13.50;99.90
64796;DHT22;51229;51.980;6.722;2022-09-16T18:42:14;13.60;99.90
64796;DHT22;51229;51.980;6.722;2022-09-16T18:44:39;13.60;99.90
64796;DHT22;51229;51.980;6.722;2022-09-16T18:47:05;13.60;99.90